Latest Coastal Weather Observations for Robe Airport

IDV60701

Issued at 4:32 am EST Thursday 25 April 2024 (issued every 10 minutes, with the page automatically refreshed every 10 minutes)

About coastal observations | Map of coastal stations | Coastal observations for VIC | Marine services | Other Formats
Station Details ID: 026105 Name: ROBE AIRFIELD Lat: -37.18 Lon: 139.81 Height: 3.0 m
Data from the previous 72 hours. | See also: Recent months at Robe Airport
Date/Time
EST
Wind Sea
Height
m
Swell Vis
km
Cloud Weather Temp
°C
Press
MSL
hPa
Rain since
9am
mm
Dir  Spd
kts
Gust
kts
Height
m
Period
s
Dir
25/04:30am SW 6 8 - - - - - - - 12.7 1026.5 0.4
25/04:00am SW 5 8 - - - - - - - 12.4 1026.3 0.4
25/03:30am SW 4 5 - - - - - - - 12.1 1026.3 0.4
25/03:00am SW 4 6 - - - - - - - 12.1 1026.5 0.4
25/02:30am WSW 3 4 - - - - - - - 12.0 1026.7 0.4
25/02:00am SSW 8 11 - - - - - - - 12.1 1026.8 0.4
25/01:30am WSW 4 7 - - - - - - - 12.4 1026.9 0.2
25/01:00am WSW 3 6 - - - - - - - 12.4 1026.9 0.2
25/12:30am W 2 3 - - - - - - - 11.9 1027.0 0.2
25/12:00am WSW 3 5 - - - - - - - 12.2 1027.2 0.2
 
Date/Time
EST
Wind Sea
Height
m
Swell Vis
km
Cloud Weather Temp
°C
Press
MSL
hPa
Rain since
9am
mm
Dir  Spd
kts
Gust
kts
Height
m
Period
s
Dir
24/11:30pm WSW 5 9 - - - - - - - 12.7 1027.4 0.2
24/11:00pm WSW 5 8 - - - - - - - 12.8 1027.5 0.2
24/10:30pm W 4 7 - - - - - - - 12.3 1027.7 0.2
24/10:00pm W 4 9 - - - - - - - 12.4 1027.7 0.2
24/09:30pm WSW 3 5 - - - - - - - 12.9 1027.7 0.0
24/09:00pm SW 4 6 - - - - - - - 13.1 1027.6 0.0
24/08:30pm WSW 3 5 - - - - - - - 13.0 1027.4 0.0
24/08:00pm SW 4 6 - - - - - - - 12.8 1027.5 0.0
24/07:30pm SW 6 9 - - - - - - - 13.3 1027.6 0.0
24/07:00pm SW 5 7 - - - - - - - 12.8 1027.5 0.0
24/06:30pm SSW 7 14 - - - - - - - 13.5 1027.2 0.0
24/06:00pm SSW 3 5 - - - - - - - 13.5 1027.0 0.0
24/05:30pm SSW 7 13 - - - - - - - 13.7 1026.9 0.0
24/05:00pm SW 9 12 - - - - - - - 14.6 1026.8 0.0
24/04:30pm SSW 9 13 - - - - - - - 14.5 1026.8 0.0
24/04:00pm SSW 9 13 - - - - - - - 15.6 1026.9 0.0
24/03:30pm SW 10 14 - - - - - - - 15.3 1026.9 0.0
24/03:00pm SSW 10 15 - - - - - - - 15.3 1026.9 0.0
24/02:30pm SSW 13 18 - - - - - - - 15.1 1026.7 0.0
24/02:00pm SW 8 13 - - - - - - - 15.4 1026.8 0.0
24/01:30pm SSW 9 13 - - - - - - - 15.1 1027.0 0.0
24/01:00pm SSW 11 17 - - - - - - - 15.8 1027.1 0.0
24/12:30pm SSW 11 17 - - - - - - - 15.7 1027.2 0.0
24/12:00pm SSW 10 14 - - - - - - - 15.4 1027.3 0.0
24/11:30am S 11 17 - - - - - - - 15.0 1027.5 0.0
24/11:00am SSW 11 16 - - - - - - - 14.2 1027.5 0.0
24/10:30am SSW 6 9 - - - - - - - 13.0 1027.2 0.0
24/10:00am SW 6 11 - - - - - - - 12.3 1027.2 0.0
24/09:30am SSW 13 22 - - - - - - - 12.7 1027.0 3.4
24/09:29am SSW 13 22 - - - - - - - 12.8 1026.9 3.4
24/09:00am SW 5 8 - - - - - - - 11.9 1026.5 3.4
24/08:30am SSW 14 21 - - - - - - - 11.7 1026.3 3.4
24/08:21am SSW 9 21 - - - - - - - 13.1 1025.8 3.4
24/08:00am S 4 5 - - - - - - - 11.2 1025.5 3.4
24/07:30am S 6 8 - - - - - - - 10.8 1025.1 3.4
24/07:00am S 7 10 - - - - - - - 11.0 1024.8 3.4
24/06:30am SSW 9 12 - - - - - - Recent precip. 11.9 1024.6 3.4
24/06:00am SSW 10 15 - - - - - - - 12.5 1024.4 3.4
24/05:30am SSW 9 13 - - - - - - - 11.7 1024.1 3.2
24/05:00am SSW 8 12 - - - - - - - 11.8 1023.8 3.2
24/04:30am SW 9 14 - - - - - - - 12.1 1023.5 3.2
24/04:00am SSW 13 20 - - - - - - - 11.1 1023.2 3.2
24/03:30am SSW 9 14 - - - - - - - 11.8 1023.0 3.2
24/03:00am SW 7 13 - - - - - - - 11.9 1023.0 3.2
24/02:30am SSW 8 11 - - - - - - - 11.8 1022.9 3.2
24/02:00am SW 10 15 - - - - - - - 12.2 1022.7 3.2
24/01:30am SSW 9 12 - - - - - - - 11.8 1022.2 3.2
24/01:00am SSW 9 16 - - - - - - - 11.6 1022.0 3.2
24/12:30am SSW 9 14 - - - - - - - 11.3 1021.8 3.2
24/12:00am SSW 8 13 - - - - - - - 10.8 1021.6 3.2
 
Date/Time
EST
Wind Sea
Height
m
Swell Vis
km
Cloud Weather Temp
°C
Press
MSL
hPa
Rain since
9am
mm
Dir  Spd
kts
Gust
kts
Height
m
Period
s
Dir
23/11:30pm SSW 12 19 - - - - - - - 11.2 1021.5 3.2
23/11:19pm SW 15 27 - - - - - - - 11.3 1021.6 3.2
23/11:00pm SW 12 20 - - - - - - - 12.1 1021.3 3.0
23/10:30pm SW 10 15 - - - - - - - 12.0 1021.1 3.0
23/10:00pm SW 11 17 - - - - - - - 12.3 1020.6 3.0
23/09:30pm WSW 11 17 - - - - - - - 12.6 1020.5 3.0
23/09:00pm SW 11 19 - - - - - - - 12.3 1020.0 3.0
23/08:30pm SW 9 15 - - - - - - - 11.2 1019.7 3.0
23/08:00pm WSW 8 22 - - - - - - - 11.9 1019.3 2.6
23/07:30pm WSW 9 16 - - - - - - - 11.1 1018.9 2.6
23/07:16pm WSW 10 24 - - - - - - - 11.5 1018.7 2.4
23/07:00pm W 4 7 - - - - - - - 11.3 1018.5 2.0
23/06:30pm WSW 7 11 - - - - - - Recent precip. 11.3 1018.2 2.0
23/06:00pm WSW 7 12 - - - - - - - 11.7 1017.9 1.6
23/05:30pm SW 12 20 - - - - - - - 11.7 1017.2 1.2
23/05:11pm SW 15 25 - - - - - - - 11.6 1017.1 0.2
23/05:00pm SSW 19 27 - - - - - - - 11.9 1016.9 0.0
23/04:40pm SSW 15 27 - - - - - - - 13.8 1016.5 0.0
23/04:30pm SW 15 23 - - - - - - - 14.4 1016.4 0.0
23/04:00pm SW 14 25 - - - - - - - 14.7 1016.1 0.0
23/03:38pm SW 16 27 - - - - - - - 14.7 1015.6 0.0
23/03:30pm SW 14 24 - - - - - - - 15.2 1015.5 0.0
23/03:00pm NW 9 13 - - - - - - - 16.9 1014.6 0.0
23/02:30pm NW 10 14 - - - - - - - 17.7 1014.2 0.0
23/02:00pm NW 12 18 - - - - - - - 18.2 1014.4 0.0
23/01:30pm NW 13 17 - - - - - - - 18.8 1014.6 0.0
23/01:00pm NW 11 17 - - - - - - - 19.4 1015.1 0.0
23/12:30pm NW 12 18 - - - - - - - 18.9 1015.4 0.0
23/12:00pm NW 12 18 - - - - - - - 18.2 1015.6 0.0
23/11:30am NW 14 19 - - - - - - - 19.8 1015.6 0.0
23/11:00am NNW 16 22 - - - - - - - 21.1 1015.5 0.0
23/10:30am NNW 16 23 - - - - - - - 21.4 1015.6 0.0
23/10:00am N 14 19 - - - - - - - 20.9 1015.8 0.0
23/09:30am N 13 18 - - - - - - - 18.9 1016.2 0.0
23/09:00am N 10 14 - - - - - - - 16.7 1016.4 0.0
23/08:30am NNE 7 9 - - - - - - - 13.6 1016.3 0.0
23/08:00am NNE 2 3 - - - - - - - 10.1 1016.4 0.0
23/07:30am NNE 2 3 - - - - - - - 8.3 1016.6 0.0
23/07:00am N 4 6 - - - - - - - 8.3 1016.9 0.0
23/06:30am NNW 5 5 - - - - - - - 8.8 1017.4 0.0
23/06:00am NNW 4 5 - - - - - - - 7.7 1017.6 0.0
23/05:30am NNW 3 4 - - - - - - - 6.5 1017.5 0.0
23/05:00am NNW 3 4 - - - - - - - 6.3 1017.6 0.0
23/04:30am NNW 3 4 - - - - - - - 8.0 1017.6 0.0
23/04:00am NNW 2 4 - - - - - - - 6.2 1017.7 0.0
23/03:30am CALM 0 0 - - - - - - - 6.5 1018.0 0.0
23/03:00am CALM 0 0 - - - - - - - 7.4 1018.5 0.0
23/02:30am CALM 0 0 - - - - - - - 5.3 1018.8 0.0
23/02:00am CALM 0 0 - - - - - - - 7.5 1019.2 0.0
23/01:30am CALM 0 0 - - - - - - - 5.3 1019.3 0.0
23/01:00am CALM 0 0 - - - - - - - 5.0 1019.6 0.0
23/12:30am CALM 0 0 - - - - - - - 5.6 1019.8 0.0
23/12:00am CALM 0 0 - - - - - - - 6.5 1020.1 0.0
 
Date/Time
EST
Wind Sea
Height
m
Swell Vis
km
Cloud Weather Temp
°C
Press
MSL
hPa
Rain since
9am
mm
Dir  Spd
kts
Gust
kts
Height
m
Period
s
Dir
22/11:30pm CALM 0 0 - - - - - - - 7.9 1020.0 0.0
22/11:00pm CALM 0 0 - - - - - - - 9.7 1020.3 0.0
22/10:30pm CALM 0 0 - - - - - - - 9.6 1020.6 0.0
22/10:00pm CALM 0 0 - - - - - - - 9.7 1020.7 0.0
22/09:30pm NNW 1 2 - - - - - - - 8.5 1020.8 0.0
22/09:00pm CALM 0 1 - - - - - - - 8.7 1020.9 0.0
22/08:30pm CALM 0 0 - - - - - - - 7.6 1021.4 0.0
22/08:00pm CALM 0 0 - - - - - - - 8.9 1021.7 0.0
22/07:30pm CALM 0 1 - - - - - - - 10.3 1021.7 0.0
22/07:00pm NNW 3 4 - - - - - - - 12.0 1021.7 0.0
22/06:30pm NNW 2 3 - - - - - - - 13.3 1021.6 0.0
22/06:00pm NNW 3 5 - - - - - - - 15.5 1021.6 0.0
22/05:30pm NNW 7 9 - - - - - - - 18.3 1021.7 0.0
22/05:00pm NNW 8 11 - - - - - - - 19.2 1021.8 0.0
22/04:30pm NNW 9 12 - - - - - - - 19.8 1022.1 0.0
22/04:00pm NNW 8 11 - - - - - - - 19.9 1022.4 0.0
22/03:30pm NNW 9 12 - - - - - - - 20.1 1022.6 0.0
22/03:00pm NNW 10 13 - - - - - - - 19.9 1022.7 0.0
22/02:30pm NNW 9 12 - - - - - - - 20.1 1023.2 0.0
22/02:00pm NNW 10 13 - - - - - - - 19.1 1023.5 0.0
22/01:30pm NNW 11 14 - - - - - - - 18.5 1024.0 0.0
22/01:00pm NNW 12 16 - - - - - - - 18.4 1024.6 0.0
22/12:30pm NNW 10 13 - - - - - - - 18.7 1025.2 0.0
22/12:00pm NW 10 13 - - - - - - - 17.9 1025.5 0.0
22/11:30am NNW 11 14 - - - - - - - 18.6 1025.6 0.0
22/11:00am NNW 12 15 - - - - - - - 17.4 1025.6 0.0
22/10:30am NNW 7 11 - - - - - - - 15.6 1026.1 0.0
22/10:00am N 5 8 - - - - - - - 13.8 1026.6 0.0
22/09:30am N 4 6 - - - - - - - 10.9 1026.9 0.0
22/09:00am NNE 5 6 - - - - - - - 8.6 1026.8 0.0
22/08:30am CALM 0 0 - - - - - - - 6.9 1026.9 0.0
22/08:00am CALM 0 0 - - - - - - - 3.3 1026.5 0.0
22/07:30am CALM 0 0 - - - - - - - 2.6 1026.5 0.0
22/07:00am CALM 0 0 - - - - - - - 0.7 1026.4 0.0
22/06:30am CALM 0 0 - - - - - - - 0.9 1026.4 0.0
22/06:00am CALM 0 0 - - - - - - - 0.8 1026.4 0.0
22/05:30am CALM 0 0 - - - - - - - 1.9 1026.3 0.0

Other formats

Comma delimited format used in spreadsheet applications
http://www.bom.gov.au/fwo/IDV60701/IDV60701.95816.axf

JavaScript Object Notation format (JSON) in row-major order
http://www.bom.gov.au/fwo/IDV60701/IDV60701.95816.json

Data quality

Most of these data are generated automatically and are frequently updated. Quality checks on data are not normally performed. It is possible for incorrect values to appear. Refer to information at About Latest Weather Observations and please check the disclaimer before using these data.